Terminal Aerodrome Forecast
Issued by NWS

Home | Current Version | Previous Version | Text Only | Print | Product List | Glossary On
Versions: 1 2 3 4 5 6 7 8 9 10 11 12 13 14 15 16 17 18 19 20 21 22 23 24 25
000
FTUS45 KPSR 201313 AAA
TAFSDL
TAF AMD
KSDL 201313Z 2013/2112 16005KT P6SM BKN100 OVC250
     FM201700 21010KT P6SM -SHRA SCT040 BKN060 OVC120
     FM202200 24010G20KT P6SM FEW050 BKN100
     FM210100 21007KT P6SM VCSH SCT050 BKN070 PROB30 2101/2107 -SHRA
      SCT040 BKN060
     FM210800 VRB03KT P6SM SKC=

USA.gov is the U.S. government's official web portal to all federal, state and local government web resources and services.